sensor_id;sensor_type;location;lat;lon;timestamp;pressure;altitude;pressure_sealevel;temperature;humidity
72892;BME280;61032;50.782;6.818;2023-12-22T00:00:53;99149.16;;;7.38;80.19
72892;BME280;61032;50.782;6.818;2023-12-22T00:01:53;99147.69;;;7.41;79.85
72892;BME280;61032;50.782;6.818;2023-12-22T00:02:54;99146.66;;;7.45;79.26
72892;BME280;61032;50.782;6.818;2023-12-22T00:03:54;99142.34;;;7.44;78.72
72892;BME280;61032;50.782;6.818;2023-12-22T00:04:54;99151.88;;;7.50;79.22
72892;BME280;61032;50.782;6.818;2023-12-22T00:05:55;99151.75;;;7.59;78.57
72892;BME280;61032;50.782;6.818;2023-12-22T00:06:55;99149.59;;;7.65;78.50
72892;BME280;61032;50.782;6.818;2023-12-22T00:07:55;99154.00;;;7.69;78.17
72892;BME280;61032;50.782;6.818;2023-12-22T00:08:56;99158.00;;;7.72;78.22
72892;BME280;61032;50.782;6.818;2023-12-22T00:09:56;99199.94;;;7.76;76.84
72892;BME280;61032;50.782;6.818;2023-12-22T00:10:57;99251.59;;;7.89;76.90
72892;BME280;61032;50.782;6.818;2023-12-22T00:11:57;99218.66;;;7.86;76.45
72892;BME280;61032;50.782;6.818;2023-12-22T00:12:58;99223.09;;;7.66;75.62
72892;BME280;61032;50.782;6.818;2023-12-22T00:13:58;99250.31;;;7.50;76.57
72892;BME280;61032;50.782;6.818;2023-12-22T00:14:58;99257.59;;;7.34;77.19
72892;BME280;61032;50.782;6.818;2023-12-22T00:15:59;99243.91;;;7.22;77.42
72892;BME280;61032;50.782;6.818;2023-12-22T00:17:03;99249.78;;;7.12;77.66
72892;BME280;61032;50.782;6.818;2023-12-22T00:18:03;99241.59;;;7.00;77.34
72892;BME280;61032;50.782;6.818;2023-12-22T00:19:04;99219.31;;;6.77;78.85
72892;BME280;61032;50.782;6.818;2023-12-22T00:20:05;99212.31;;;6.67;79.88
72892;BME280;61032;50.782;6.818;2023-12-22T00:21:09;99225.19;;;6.67;80.55
72892;BME280;61032;50.782;6.818;2023-12-22T00:22:10;99232.47;;;6.63;80.65
72892;BME280;61032;50.782;6.818;2023-12-22T00:23:10;99228.94;;;6.62;80.28
72892;BME280;61032;50.782;6.818;2023-12-22T00:24:11;99248.97;;;6.66;80.63
72892;BME280;61032;50.782;6.818;2023-12-22T00:25:11;99252.06;;;6.65;80.76
72892;BME280;61032;50.782;6.818;2023-12-22T00:26:11;99253.97;;;6.64;80.45
72892;BME280;61032;50.782;6.818;2023-12-22T00:27:12;99255.56;;;6.65;80.72
72892;BME280;61032;50.782;6.818;2023-12-22T00:28:12;99257.63;;;6.68;81.61
72892;BME280;61032;50.782;6.818;2023-12-22T00:29:12;99255.22;;;6.67;80.77
72892;BME280;61032;50.782;6.818;2023-12-22T00:30:13;99247.34;;;6.65;81.67
72892;BME280;61032;50.782;6.818;2023-12-22T00:31:14;99253.63;;;6.66;81.83
72892;BME280;61032;50.782;6.818;2023-12-22T00:32:14;99261.72;;;6.62;81.88
72892;BME280;61032;50.782;6.818;2023-12-22T00:33:14;99279.69;;;6.63;82.26
72892;BME280;61032;50.782;6.818;2023-12-22T00:34:16;99271.50;;;6.63;82.46
72892;BME280;61032;50.782;6.818;2023-12-22T00:35:17;99262.50;;;6.63;82.21
72892;BME280;61032;50.782;6.818;2023-12-22T00:36:17;99294.25;;;6.67;82.41
72892;BME280;61032;50.782;6.818;2023-12-22T00:37:18;99277.19;;;6.70;82.96
72892;BME280;61032;50.782;6.818;2023-12-22T00:38:19;99246.03;;;6.71;82.40
72892;BME280;61032;50.782;6.818;2023-12-22T00:39:19;99252.16;;;6.68;82.11
72892;BME280;61032;50.782;6.818;2023-12-22T00:40:19;99247.16;;;6.70;82.30
72892;BME280;61032;50.782;6.818;2023-12-22T00:41:20;99252.81;;;6.65;82.36
72892;BME280;61032;50.782;6.818;2023-12-22T00:42:20;99257.16;;;6.66;82.58
72892;BME280;61032;50.782;6.818;2023-12-22T00:43:20;99256.72;;;6.64;82.71
72892;BME280;61032;50.782;6.818;2023-12-22T00:44:21;99259.22;;;6.69;83.17
72892;BME280;61032;50.782;6.818;2023-12-22T00:45:21;99259.53;;;6.68;82.72
72892;BME280;61032;50.782;6.818;2023-12-22T00:46:21;99254.19;;;6.59;83.27
72892;BME280;61032;50.782;6.818;2023-12-22T00:47:21;99260.31;;;6.56;84.03
72892;BME280;61032;50.782;6.818;2023-12-22T00:48:22;99266.69;;;6.60;83.24
72892;BME280;61032;50.782;6.818;2023-12-22T00:49:22;99272.63;;;6.62;83.27
72892;BME280;61032;50.782;6.818;2023-12-22T00:50:22;99266.94;;;6.67;83.78
72892;BME280;61032;50.782;6.818;2023-12-22T00:51:23;99272.22;;;6.72;83.18
72892;BME280;61032;50.782;6.818;2023-12-22T00:52:23;99274.94;;;6.72;82.69
72892;BME280;61032;50.782;6.818;2023-12-22T00:53:24;99268.81;;;6.75;83.34
72892;BME280;61032;50.782;6.818;2023-12-22T00:54:24;99269.28;;;6.77;82.51
72892;BME280;61032;50.782;6.818;2023-12-22T00:55:25;99267.22;;;6.74;83.27
72892;BME280;61032;50.782;6.818;2023-12-22T00:56:25;99269.59;;;6.76;83.22
72892;BME280;61032;50.782;6.818;2023-12-22T00:57:25;99269.59;;;6.76;83.19
72892;BME280;61032;50.782;6.818;2023-12-22T00:58:26;99276.34;;;6.78;83.34
72892;BME280;61032;50.782;6.818;2023-12-22T00:59:26;99276.81;;;6.80;82.90
72892;BME280;61032;50.782;6.818;2023-12-22T01:00:26;99277.75;;;6.84;83.05
72892;BME280;61032;50.782;6.818;2023-12-22T01:01:27;99279.78;;;6.87;82.98
72892;BME280;61032;50.782;6.818;2023-12-22T01:02:27;99271.91;;;6.86;82.84
72892;BME280;61032;50.782;6.818;2023-12-22T01:03:27;99270.78;;;6.87;83.11
72892;BME280;61032;50.782;6.818;2023-12-22T01:04:28;99270.25;;;6.94;82.67
72892;BME280;61032;50.782;6.818;2023-12-22T01:05:28;99273.44;;;6.96;82.28
72892;BME280;61032;50.782;6.818;2023-12-22T01:06:28;99278.09;;;6.95;82.62
72892;BME280;61032;50.782;6.818;2023-12-22T01:07:29;99278.56;;;6.97;82.90
72892;BME280;61032;50.782;6.818;2023-12-22T01:08:29;99278.22;;;6.99;82.74
72892;BME280;61032;50.782;6.818;2023-12-22T01:09:29;99277.91;;;7.00;82.80
72892;BME280;61032;50.782;6.818;2023-12-22T01:10:29;99277.09;;;7.00;82.82
72892;BME280;61032;50.782;6.818;2023-12-22T01:11:30;99273.44;;;6.96;83.20
72892;BME280;61032;50.782;6.818;2023-12-22T01:12:30;99275.97;;;7.01;82.55
72892;BME280;61032;50.782;6.818;2023-12-22T01:13:31;99275.75;;;7.06;82.52
72892;BME280;61032;50.782;6.818;2023-12-22T01:14:32;99281.66;;;7.08;82.56
72892;BME280;61032;50.782;6.818;2023-12-22T01:15:32;99297.38;;;7.11;82.27
72892;BME280;61032;50.782;6.818;2023-12-22T01:16:33;99294.31;;;7.12;81.94
72892;BME280;61032;50.782;6.818;2023-12-22T01:17:33;99303.19;;;7.09;82.43
72892;BME280;61032;50.782;6.818;2023-12-22T01:18:34;99296.25;;;7.12;82.78
72892;BME280;61032;50.782;6.818;2023-12-22T01:19:34;99290.66;;;7.08;82.19
72892;BME280;61032;50.782;6.818;2023-12-22T01:20:34;99276.75;;;7.01;82.46
72892;BME280;61032;50.782;6.818;2023-12-22T01:21:35;99273.69;;;7.03;82.90
72892;BME280;61032;50.782;6.818;2023-12-22T01:22:35;99275.31;;;7.16;82.79
72892;BME280;61032;50.782;6.818;2023-12-22T01:23:38;99278.84;;;7.16;82.14
72892;BME280;61032;50.782;6.818;2023-12-22T01:24:38;99290.59;;;7.17;82.18
72892;BME280;61032;50.782;6.818;2023-12-22T01:25:43;99296.25;;;7.12;82.07
72892;BME280;61032;50.782;6.818;2023-12-22T01:26:43;99301.50;;;7.17;82.45
72892;BME280;61032;50.782;6.818;2023-12-22T01:27:43;99289.91;;;7.20;82.17
72892;BME280;61032;50.782;6.818;2023-12-22T01:28:44;99294.72;;;7.23;82.31
72892;BME280;61032;50.782;6.818;2023-12-22T01:29:44;99297.19;;;7.28;81.52
72892;BME280;61032;50.782;6.818;2023-12-22T01:30:44;99297.56;;;7.27;81.75
72892;BME280;61032;50.782;6.818;2023-12-22T01:31:44;99298.00;;;7.29;81.77
72892;BME280;61032;50.782;6.818;2023-12-22T01:32:45;99305.06;;;7.30;81.79
72892;BME280;61032;50.782;6.818;2023-12-22T01:33:45;99300.41;;;7.30;81.23
72892;BME280;61032;50.782;6.818;2023-12-22T01:34:45;99302.09;;;7.22;81.42
72892;BME280;61032;50.782;6.818;2023-12-22T01:35:46;99292.44;;;7.25;81.11
72892;BME280;61032;50.782;6.818;2023-12-22T01:36:46;99284.25;;;7.25;81.02
72892;BME280;61032;50.782;6.818;2023-12-22T01:37:46;99286.72;;;7.30;81.27
72892;BME280;61032;50.782;6.818;2023-12-22T01:38:48;99286.41;;;7.32;81.25
72892;BME280;61032;50.782;6.818;2023-12-22T01:39:49;99279.91;;;7.36;81.08
72892;BME280;61032;50.782;6.818;2023-12-22T01:40:49;99281.06;;;7.35;80.93
72892;BME280;61032;50.782;6.818;2023-12-22T01:41:49;99274.25;;;7.41;80.44
72892;BME280;61032;50.782;6.818;2023-12-22T01:42:49;99270.38;;;7.42;80.15
72892;BME280;61032;50.782;6.818;2023-12-22T01:43:50;99270.72;;;7.41;80.33
72892;BME280;61032;50.782;6.818;2023-12-22T01:44:50;99271.16;;;7.43;80.55
72892;BME280;61032;50.782;6.818;2023-12-22T01:45:55;99266.72;;;7.38;80.00
72892;BME280;61032;50.782;6.818;2023-12-22T01:46:55;99269.78;;;7.37;80.34
72892;BME280;61032;50.782;6.818;2023-12-22T01:47:56;99262.38;;;7.37;80.39
72892;BME280;61032;50.782;6.818;2023-12-22T01:48:56;99261.72;;;7.40;80.31
72892;BME280;61032;50.782;6.818;2023-12-22T01:49:56;99253.63;;;7.44;80.12
72892;BME280;61032;50.782;6.818;2023-12-22T01:50:58;99260.78;;;7.48;80.12
72892;BME280;61032;50.782;6.818;2023-12-22T01:52:00;99260.34;;;7.46;80.14
72892;BME280;61032;50.782;6.818;2023-12-22T01:53:00;99262.63;;;7.44;80.62
72892;BME280;61032;50.782;6.818;2023-12-22T01:54:01;99262.03;;;7.51;79.94
72892;BME280;61032;50.782;6.818;2023-12-22T01:55:01;99245.63;;;7.51;79.67
72892;BME280;61032;50.782;6.818;2023-12-22T01:56:02;99248.72;;;7.49;79.86
72892;BME280;61032;50.782;6.818;2023-12-22T01:57:03;99272.19;;;7.50;79.93
72892;BME280;61032;50.782;6.818;2023-12-22T01:58:04;99266.97;;;7.45;80.09
72892;BME280;61032;50.782;6.818;2023-12-22T01:59:04;99262.84;;;7.51;80.01
72892;BME280;61032;50.782;6.818;2023-12-22T02:00:05;99264.91;;;7.54;79.88
72892;BME280;61032;50.782;6.818;2023-12-22T02:01:06;99267.63;;;7.54;80.13
72892;BME280;61032;50.782;6.818;2023-12-22T02:02:07;99263.75;;;7.55;80.15
72892;BME280;61032;50.782;6.818;2023-12-22T02:03:08;99266.28;;;7.61;80.12
72892;BME280;61032;50.782;6.818;2023-12-22T02:04:09;99275.63;;;7.59;80.12
72892;BME280;61032;50.782;6.818;2023-12-22T02:05:09;99276.31;;;7.56;80.15
72892;BME280;61032;50.782;6.818;2023-12-22T02:06:13;99274.69;;;7.55;80.17
72892;BME280;61032;50.782;6.818;2023-12-22T02:07:13;99291.78;;;7.52;80.74
72892;BME280;61032;50.782;6.818;2023-12-22T02:08:17;99306.84;;;7.58;80.91
72892;BME280;61032;50.782;6.818;2023-12-22T02:09:18;99301.03;;;7.60;80.82
72892;BME280;61032;50.782;6.818;2023-12-22T02:10:18;99292.03;;;7.59;81.14
72892;BME280;61032;50.782;6.818;2023-12-22T02:11:19;99291.25;;;7.59;80.98
72892;BME280;61032;50.782;6.818;2023-12-22T02:12:19;99290.78;;;7.57;81.06
72892;BME280;61032;50.782;6.818;2023-12-22T02:13:19;99300.91;;;7.56;81.15
72892;BME280;61032;50.782;6.818;2023-12-22T02:14:20;99301.72;;;7.57;81.38
72892;BME280;61032;50.782;6.818;2023-12-22T02:15:21;99301.03;;;7.60;81.30
72892;BME280;61032;50.782;6.818;2023-12-22T02:18:10;99308.88;;;7.49;81.18
72892;BME280;61032;50.782;6.818;2023-12-22T02:20:38;99290.19;;;7.51;81.74
72892;BME280;61032;50.782;6.818;2023-12-22T02:23:01;99283.59;;;7.52;81.89
72892;BME280;61032;50.782;6.818;2023-12-22T02:24:02;99300.00;;;7.52;81.74
72892;BME280;61032;50.782;6.818;2023-12-22T02:25:02;99301.47;;;7.50;81.86
72892;BME280;61032;50.782;6.818;2023-12-22T02:26:12;99306.59;;;7.51;82.05
72892;BME280;61032;50.782;6.818;2023-12-22T02:27:22;99311.38;;;7.42;81.73
72892;BME280;61032;50.782;6.818;2023-12-22T02:28:23;99314.88;;;7.31;82.46
72892;BME280;61032;50.782;6.818;2023-12-22T02:29:25;99309.88;;;7.33;82.60
72892;BME280;61032;50.782;6.818;2023-12-22T02:30:32;99303.84;;;7.39;82.74
72892;BME280;61032;50.782;6.818;2023-12-22T02:31:40;99313.44;;;7.45;82.25
72892;BME280;61032;50.782;6.818;2023-12-22T02:32:47;99308.88;;;7.49;81.85
72892;BME280;61032;50.782;6.818;2023-12-22T02:33:50;99319.50;;;7.63;81.66
72892;BME280;61032;50.782;6.818;2023-12-22T02:34:53;99313.69;;;7.65;80.54
72892;BME280;61032;50.782;6.818;2023-12-22T02:35:58;99316.91;;;7.67;80.22
72892;BME280;61032;50.782;6.818;2023-12-22T02:37:05;99305.16;;;7.66;80.09
72892;BME280;61032;50.782;6.818;2023-12-22T02:38:08;99306.50;;;7.72;79.82
72892;BME280;61032;50.782;6.818;2023-12-22T02:39:09;99300.69;;;7.74;78.52
72892;BME280;61032;50.782;6.818;2023-12-22T02:40:11;99309.59;;;7.71;78.58
72892;BME280;61032;50.782;6.818;2023-12-22T02:41:12;99298.88;;;7.78;78.85
72892;BME280;61032;50.782;6.818;2023-12-22T02:42:13;99295.81;;;7.79;78.83
72892;BME280;61032;50.782;6.818;2023-12-22T02:43:13;99292.03;;;7.72;78.82
72892;BME280;61032;50.782;6.818;2023-12-22T02:44:13;99296.16;;;7.66;79.38
72892;BME280;61032;50.782;6.818;2023-12-22T02:45:16;99298.84;;;7.53;79.64
72892;BME280;61032;50.782;6.818;2023-12-22T02:46:16;99289.16;;;7.44;80.29
72892;BME280;61032;50.782;6.818;2023-12-22T02:47:17;99280.59;;;7.33;80.48
72892;BME280;61032;50.782;6.818;2023-12-22T02:48:17;99280.13;;;7.31;80.99
72892;BME280;61032;50.782;6.818;2023-12-22T02:49:17;99281.53;;;7.37;81.54
72892;BME280;61032;50.782;6.818;2023-12-22T02:50:18;99280.84;;;7.40;81.33
72892;BME280;61032;50.782;6.818;2023-12-22T02:51:19;99286.31;;;7.40;81.31
72892;BME280;61032;50.782;6.818;2023-12-22T02:52:19;99278.38;;;7.47;81.89
72892;BME280;61032;50.782;6.818;2023-12-22T02:53:20;99291.31;;;7.38;81.54
72892;BME280;61032;50.782;6.818;2023-12-22T02:54:20;99277.78;;;7.42;81.56
72892;BME280;61032;50.782;6.818;2023-12-22T02:55:20;99279.72;;;7.41;81.21
72892;BME280;61032;50.782;6.818;2023-12-22T02:56:21;99283.81;;;7.47;81.47
72892;BME280;61032;50.782;6.818;2023-12-22T02:57:21;99269.44;;;7.38;80.57
72892;BME280;61032;50.782;6.818;2023-12-22T02:58:21;99275.84;;;7.42;80.31
72892;BME280;61032;50.782;6.818;2023-12-22T02:59:22;99273.56;;;7.44;81.60
72892;BME280;61032;50.782;6.818;2023-12-22T03:00:22;99273.09;;;7.42;81.01
72892;BME280;61032;50.782;6.818;2023-12-22T03:01:22;99271.28;;;7.46;81.02
72892;BME280;61032;50.782;6.818;2023-12-22T03:02:23;99266.38;;;7.40;80.62
72892;BME280;61032;50.782;6.818;2023-12-22T03:03:23;99276.75;;;7.46;80.41
72892;BME280;61032;50.782;6.818;2023-12-22T03:04:23;99258.28;;;7.43;80.62
72892;BME280;61032;50.782;6.818;2023-12-22T03:05:24;99264.31;;;7.37;80.43
72892;BME280;61032;50.782;6.818;2023-12-22T03:06:24;99270.00;;;7.32;81.37
72892;BME280;61032;50.782;6.818;2023-12-22T03:07:24;99270.03;;;7.44;81.40
72892;BME280;61032;50.782;6.818;2023-12-22T03:08:25;99262.50;;;7.53;81.16
72892;BME280;61032;50.782;6.818;2023-12-22T03:09:25;99278.03;;;7.61;80.69
72892;BME280;61032;50.782;6.818;2023-12-22T03:10:25;99279.84;;;7.57;80.76
72892;BME280;61032;50.782;6.818;2023-12-22T03:11:26;99279.97;;;7.61;80.90
72892;BME280;61032;50.782;6.818;2023-12-22T03:12:26;99275.50;;;7.56;80.67
72892;BME280;61032;50.782;6.818;2023-12-22T03:13:26;99277.91;;;7.57;80.81
72892;BME280;61032;50.782;6.818;2023-12-22T03:14:29;99269.81;;;7.61;78.76
72892;BME280;61032;50.782;6.818;2023-12-22T03:15:30;99268.56;;;7.71;78.35
72892;BME280;61032;50.782;6.818;2023-12-22T03:16:30;99273.59;;;7.69;77.84
72892;BME280;61032;50.782;6.818;2023-12-22T03:17:30;99271.28;;;7.58;78.40
72892;BME280;61032;50.782;6.818;2023-12-22T03:18:31;99272.69;;;7.65;78.09
72892;BME280;61032;50.782;6.818;2023-12-22T03:19:32;99271.06;;;7.64;77.71
72892;BME280;61032;50.782;6.818;2023-12-22T03:20:32;99260.34;;;7.71;78.29
72892;BME280;61032;50.782;6.818;2023-12-22T03:21:32;99267.53;;;7.75;77.95
72892;BME280;61032;50.782;6.818;2023-12-22T03:22:33;99260.59;;;7.78;78.07
72892;BME280;61032;50.782;6.818;2023-12-22T03:23:33;99264.00;;;7.75;77.97
72892;BME280;61032;50.782;6.818;2023-12-22T03:24:33;99261.50;;;7.82;78.20
72892;BME280;61032;50.782;6.818;2023-12-22T03:25:34;99269.72;;;7.82;78.62
72892;BME280;61032;50.782;6.818;2023-12-22T03:26:34;99278.84;;;7.86;78.33
72892;BME280;61032;50.782;6.818;2023-12-22T03:27:34;99271.19;;;7.91;78.50
72892;BME280;61032;50.782;6.818;2023-12-22T03:28:35;99275.84;;;7.91;78.77
72892;BME280;61032;50.782;6.818;2023-12-22T03:29:35;99274.25;;;7.90;78.67
72892;BME280;61032;50.782;6.818;2023-12-22T03:30:35;99270.50;;;7.94;79.08
72892;BME280;61032;50.782;6.818;2023-12-22T03:31:38;99269.47;;;7.99;78.80
72892;BME280;61032;50.782;6.818;2023-12-22T03:32:38;99285.78;;;7.83;78.34
72892;BME280;61032;50.782;6.818;2023-12-22T03:33:38;99283.50;;;7.85;78.68
72892;BME280;61032;50.782;6.818;2023-12-22T03:34:38;99276.31;;;7.81;78.89
72892;BME280;61032;50.782;6.818;2023-12-22T03:35:39;99274.97;;;7.87;78.76
72892;BME280;61032;50.782;6.818;2023-12-22T03:36:40;99277.81;;;7.78;78.54
72892;BME280;61032;50.782;6.818;2023-12-22T03:37:40;99286.94;;;7.82;78.37
72892;BME280;61032;50.782;6.818;2023-12-22T03:38:40;99292.50;;;7.74;78.69
72892;BME280;61032;50.782;6.818;2023-12-22T03:39:41;99284.53;;;7.69;77.86
72892;BME280;61032;50.782;6.818;2023-12-22T03:40:41;99283.16;;;7.63;78.24
72892;BME280;61032;50.782;6.818;2023-12-22T03:41:41;99288.03;;;7.57;78.56
72892;BME280;61032;50.782;6.818;2023-12-22T03:42:42;99284.72;;;7.51;78.29
72892;BME280;61032;50.782;6.818;2023-12-22T03:43:42;99290.00;;;7.69;78.13
72892;BME280;61032;50.782;6.818;2023-12-22T03:44:42;99297.75;;;7.67;77.59
72892;BME280;61032;50.782;6.818;2023-12-22T03:45:43;99288.97;;;7.73;76.96
72892;BME280;61032;50.782;6.818;2023-12-22T03:46:43;99288.16;;;7.73;77.69
72892;BME280;61032;50.782;6.818;2023-12-22T03:47:43;99283.81;;;7.72;74.86
72892;BME280;61032;50.782;6.818;2023-12-22T03:48:44;99286.56;;;7.72;74.14
72892;BME280;61032;50.782;6.818;2023-12-22T03:49:44;99272.00;;;7.68;71.68
72892;BME280;61032;50.782;6.818;2023-12-22T03:50:44;99300.03;;;7.65;71.53
72892;BME280;61032;50.782;6.818;2023-12-22T03:51:45;99311.88;;;7.69;72.47
72892;BME280;61032;50.782;6.818;2023-12-22T03:52:45;99307.91;;;7.66;73.26
72892;BME280;61032;50.782;6.818;2023-12-22T03:53:45;99303.44;;;7.74;73.08
72892;BME280;61032;50.782;6.818;2023-12-22T03:54:46;99308.91;;;7.74;74.27
72892;BME280;61032;50.782;6.818;2023-12-22T03:55:46;99317.44;;;7.72;73.85
72892;BME280;61032;50.782;6.818;2023-12-22T03:56:46;99312.06;;;7.51;75.05
72892;BME280;61032;50.782;6.818;2023-12-22T03:57:47;99311.06;;;7.56;75.97
72892;BME280;61032;50.782;6.818;2023-12-22T03:58:47;99316.88;;;7.54;76.27
72892;BME280;61032;50.782;6.818;2023-12-22T03:59:47;99315.84;;;7.59;76.03
72892;BME280;61032;50.782;6.818;2023-12-22T04:00:47;99325.53;;;7.56;75.58
72892;BME280;61032;50.782;6.818;2023-12-22T04:01:51;99318.34;;;7.52;76.09
72892;BME280;61032;50.782;6.818;2023-12-22T04:02:52;99318.22;;;7.48;76.82
72892;BME280;61032;50.782;6.818;2023-12-22T04:03:53;99325.06;;;7.42;76.37
72892;BME280;61032;50.782;6.818;2023-12-22T04:04:53;99336.66;;;7.39;77.24
72892;BME280;61032;50.782;6.818;2023-12-22T04:05:54;99342.00;;;7.36;77.46
72892;BME280;61032;50.782;6.818;2023-12-22T04:06:54;99334.38;;;7.41;77.71
72892;BME280;61032;50.782;6.818;2023-12-22T04:07:55;99341.66;;;7.37;77.16
72892;BME280;61032;50.782;6.818;2023-12-22T04:08:55;99339.84;;;7.41;77.42
72892;BME280;61032;50.782;6.818;2023-12-22T04:09:56;99339.06;;;7.41;77.15
72892;BME280;61032;50.782;6.818;2023-12-22T04:10:56;99332.25;;;7.47;77.51
72892;BME280;61032;50.782;6.818;2023-12-22T04:11:56;99340.78;;;7.45;77.35
72892;BME280;61032;50.782;6.818;2023-12-22T04:12:57;99336.00;;;7.42;77.22
72892;BME280;61032;50.782;6.818;2023-12-22T04:13:57;99331.66;;;7.41;76.86
72892;BME280;61032;50.782;6.818;2023-12-22T04:14:57;99324.94;;;7.39;76.50
72892;BME280;61032;50.782;6.818;2023-12-22T04:15:58;99325.94;;;7.34;77.16
72892;BME280;61032;50.782;6.818;2023-12-22T04:16:58;99327.41;;;7.32;77.00
72892;BME280;61032;50.782;6.818;2023-12-22T04:17:58;99323.31;;;7.38;77.58
72892;BME280;61032;50.782;6.818;2023-12-22T04:18:59;99314.31;;;7.37;77.47
72892;BME280;61032;50.782;6.818;2023-12-22T04:19:59;99320.25;;;7.39;77.47
72892;BME280;61032;50.782;6.818;2023-12-22T04:20:59;99319.31;;;7.35;77.29
72892;BME280;61032;50.782;6.818;2023-12-22T04:22:00;99320.78;;;7.33;77.28
72892;BME280;61032;50.782;6.818;2023-12-22T04:23:00;99323.97;;;7.22;77.07
72892;BME280;61032;50.782;6.818;2023-12-22T04:24:00;99322.44;;;7.13;78.05
72892;BME280;61032;50.782;6.818;2023-12-22T04:25:01;99325.19;;;7.13;78.04
72892;BME280;61032;50.782;6.818;2023-12-22T04:26:01;99332.03;;;7.19;78.38
72892;BME280;61032;50.782;6.818;2023-12-22T04:27:02;99327.25;;;7.16;78.91
72892;BME280;61032;50.782;6.818;2023-12-22T04:28:03;99324.03;;;7.14;79.00
72892;BME280;61032;50.782;6.818;2023-12-22T04:29:03;99330.59;;;7.01;79.61
72892;BME280;61032;50.782;6.818;2023-12-22T04:30:04;99330.41;;;7.06;79.46
72892;BME280;61032;50.782;6.818;2023-12-22T04:31:04;99322.88;;;7.03;78.98
72892;BME280;61032;50.782;6.818;2023-12-22T04:32:06;99326.47;;;6.95;80.18
72892;BME280;61032;50.782;6.818;2023-12-22T04:33:07;99324.59;;;6.86;80.42
72892;BME280;61032;50.782;6.818;2023-12-22T04:34:07;99320.63;;;6.84;81.35
72892;BME280;61032;50.782;6.818;2023-12-22T04:35:08;99316.53;;;6.90;81.22
72892;BME280;61032;50.782;6.818;2023-12-22T04:36:08;99326.91;;;6.84;81.27
72892;BME280;61032;50.782;6.818;2023-12-22T04:37:09;99323.28;;;6.93;80.96
72892;BME280;61032;50.782;6.818;2023-12-22T04:38:09;99331.66;;;6.87;81.62
72892;BME280;61032;50.782;6.818;2023-12-22T04:39:10;99313.69;;;6.86;81.97
72892;BME280;61032;50.782;6.818;2023-12-22T04:40:11;99318.81;;;6.88;81.28
72892;BME280;61032;50.782;6.818;2023-12-22T04:41:11;99311.41;;;6.88;81.62
72892;BME280;61032;50.782;6.818;2023-12-22T04:42:11;99306.66;;;6.85;82.46
72892;BME280;61032;50.782;6.818;2023-12-22T04:43:12;99311.19;;;6.81;82.47
72892;BME280;61032;50.782;6.818;2023-12-22T04:44:12;99312.56;;;6.87;82.65
72892;BME280;61032;50.782;6.818;2023-12-22T04:45:12;99306.88;;;6.93;82.43
72892;BME280;61032;50.782;6.818;2023-12-22T04:46:13;99314.16;;;6.88;83.45
72892;BME280;61032;50.782;6.818;2023-12-22T04:47:14;99322.16;;;6.94;83.89
72892;BME280;61032;50.782;6.818;2023-12-22T04:48:15;99314.63;;;6.90;84.19
72892;BME280;61032;50.782;6.818;2023-12-22T04:49:15;99317.47;;;6.94;84.90
72892;BME280;61032;50.782;6.818;2023-12-22T04:50:15;99322.53;;;7.04;84.61
72892;BME280;61032;50.782;6.818;2023-12-22T04:51:16;99319.34;;;7.02;84.40
72892;BME280;61032;50.782;6.818;2023-12-22T04:52:16;99323.38;;;7.17;84.39
72892;BME280;61032;50.782;6.818;2023-12-22T04:53:16;99330.91;;;7.20;84.60
72892;BME280;61032;50.782;6.818;2023-12-22T04:54:17;99341.75;;;7.29;84.59
72892;BME280;61032;50.782;6.818;2023-12-22T04:55:17;99333.78;;;7.23;84.78
72892;BME280;61032;50.782;6.818;2023-12-22T04:56:18;99332.88;;;7.32;83.94
72892;BME280;61032;50.782;6.818;2023-12-22T04:57:18;99324.00;;;7.35;83.70
72892;BME280;61032;50.782;6.818;2023-12-22T04:58:18;99331.06;;;7.36;84.05
72892;BME280;61032;50.782;6.818;2023-12-22T04:59:19;99327.53;;;7.35;83.91
72892;BME280;61032;50.782;6.818;2023-12-22T05:00:19;99327.19;;;7.37;83.78
72892;BME280;61032;50.782;6.818;2023-12-22T05:01:19;99335.06;;;7.38;83.94
72892;BME280;61032;50.782;6.818;2023-12-22T05:02:20;99341.88;;;7.32;83.95
72892;BME280;61032;50.782;6.818;2023-12-22T05:03:21;99333.94;;;7.39;83.62
72892;BME280;61032;50.782;6.818;2023-12-22T05:04:22;99340.44;;;7.47;83.93
72892;BME280;61032;50.782;6.818;2023-12-22T05:05:22;99352.63;;;7.49;83.27
72892;BME280;61032;50.782;6.818;2023-12-22T05:06:22;99348.66;;;7.47;82.90
72892;BME280;61032;50.782;6.818;2023-12-22T05:07:23;99351.72;;;7.45;83.08
72892;BME280;61032;50.782;6.818;2023-12-22T05:08:23;99345.44;;;7.45;82.82
72892;BME280;61032;50.782;6.818;2023-12-22T05:09:24;99356.25;;;7.41;83.08
72892;BME280;61032;50.782;6.818;2023-12-22T05:10:25;99345.44;;;7.45;83.10
72892;BME280;61032;50.782;6.818;2023-12-22T05:11:25;99365.16;;;7.50;83.15
72892;BME280;61032;50.782;6.818;2023-12-22T05:12:25;99356.28;;;7.53;82.77
72892;BME280;61032;50.782;6.818;2023-12-22T05:13:26;99358.69;;;7.55;82.62
72892;BME280;61032;50.782;6.818;2023-12-22T05:14:26;99367.00;;;7.58;82.92
72892;BME280;61032;50.782;6.818;2023-12-22T05:15:27;99359.72;;;7.63;82.61
72892;BME280;61032;50.782;6.818;2023-12-22T05:16:27;99362.47;;;7.63;82.23
72892;BME280;61032;50.782;6.818;2023-12-22T05:17:31;99357.22;;;7.70;81.81
72892;BME280;61032;50.782;6.818;2023-12-22T05:18:32;99355.66;;;7.69;81.66
72892;BME280;61032;50.782;6.818;2023-12-22T05:19:33;99345.38;;;7.66;81.63
72892;BME280;61032;50.782;6.818;2023-12-22T05:20:33;99351.75;;;7.70;81.30
72892;BME280;61032;50.782;6.818;2023-12-22T05:21:34;99352.56;;;7.70;80.85
72892;BME280;61032;50.782;6.818;2023-12-22T05:22:34;99345.59;;;7.73;80.97
72892;BME280;61032;50.782;6.818;2023-12-22T05:23:34;99360.75;;;7.70;81.25
72892;BME280;61032;50.782;6.818;2023-12-22T05:24:36;99353.00;;;7.72;81.20
72892;BME280;61032;50.782;6.818;2023-12-22T05:25:37;99352.00;;;7.77;80.36
72892;BME280;61032;50.782;6.818;2023-12-22T05:26:37;99350.31;;;7.84;79.48
72892;BME280;61032;50.782;6.818;2023-12-22T05:27:37;99360.59;;;7.87;79.17
72892;BME280;61032;50.782;6.818;2023-12-22T05:28:39;99352.59;;;7.82;78.98
72892;BME280;61032;50.782;6.818;2023-12-22T05:29:39;99355.44;;;7.86;79.43
72892;BME280;61032;50.782;6.818;2023-12-22T05:30:39;99343.38;;;7.87;79.40